Time;durP1;ratioP1;P1;durP2;ratioP2;P2;SDS_P1;SDS_P2;PMS_P1;PMS_P2;Temp;Humidity;BMP_temperature;BMP_pressure;BME280_temperature;BME280_humidity;BME280_pressure;Samples;Min_cycle;Max_cycle;Signal;HPM_P1;HPM_P2
2022/08/05 00:01:19;;;;;;;6.82;5.40;;;;;;;21.91;52.13;95055.63;5004883;28;20250;-69
2022/08/05 00:03:45;;;;;;;6.65;4.80;;;;;;;21.86;52.20;95048.25;5001947;28;20214;-69
2022/08/05 00:06:11;;;;;;;6.00;5.35;;;;;;;21.89;51.97;95052.34;5005948;28;20260;-68
2022/08/05 00:08:37;;;;;;;7.22;4.63;;;;;;;21.85;51.78;95051.97;5007558;28;20230;-70
2022/08/05 00:11:12;;;;;;;6.20;5.20;;;;;;;21.95;52.09;95046.13;5007045;28;20230;-68
2022/08/05 00:13:39;;;;;;;6.28;5.28;;;;;;;21.85;52.54;95043.13;4993945;28;20230;-69
2022/08/05 00:16:07;;;;;;;5.88;5.07;;;;;;;21.75;53.09;95035.59;4986455;28;20219;-68
2022/08/05 00:18:32;;;;;;;5.18;4.68;;;;;;;21.69;52.73;95041.84;4985714;28;20335;-69
2022/08/05 00:20:57;;;;;;;5.78;5.25;;;;;;;21.75;52.84;95038.28;4993893;28;20341;-69
2022/08/05 00:23:23;;;;;;;7.15;5.50;;;;;;;22.03;52.02;95027.09;5006307;28;20210;-70
2022/08/05 00:25:49;;;;;;;5.95;5.45;;;;;;;22.11;51.41;95028.66;4989216;28;20243;-69
2022/08/05 00:28:15;;;;;;;8.93;5.50;;;;;;;21.96;52.03;95031.69;4990098;28;20269;-70
2022/08/05 00:30:41;;;;;;;5.85;5.35;;;;;;;21.66;53.32;95031.59;4994695;28;20229;-69
2022/08/05 00:33:06;;;;;;;6.72;6.00;;;;;;;21.79;52.72;95034.13;4984915;28;20267;-69
2022/08/05 00:35:32;;;;;;;6.82;6.18;;;;;;;21.69;51.72;95028.47;4982245;28;20719;-69
2022/08/05 00:37:57;;;;;;;5.90;5.30;;;;;;;21.61;52.03;95031.41;4982885;28;20203;-69
2022/08/05 00:40:25;;;;;;;6.38;5.57;;;;;;;21.41;52.92;95028.91;5004050;28;20266;-69
2022/08/05 00:42:51;;;;;;;6.57;5.68;;;;;;;21.46;52.73;95027.22;4985324;28;20294;-69
2022/08/05 00:45:16;;;;;;;6.00;4.95;;;;;;;21.50;52.87;95027.59;4983186;28;20235;-70
2022/08/05 00:47:42;;;;;;;6.15;5.65;;;;;;;21.42;53.50;95036.72;4993067;28;20257;-69
2022/08/05 00:50:08;;;;;;;5.70;5.25;;;;;;;21.35;53.92;95039.41;5006794;28;20211;-69
2022/08/05 00:52:34;;;;;;;6.22;5.68;;;;;;;21.28;54.25;95052.03;4981152;28;20226;-69
2022/08/05 00:54:59;;;;;;;5.93;5.38;;;;;;;21.31;54.22;95034.72;4999551;28;20223;-68
2022/08/05 00:57:25;;;;;;;8.13;5.53;;;;;;;21.31;53.78;95032.88;4991991;28;20247;-68
2022/08/05 00:59:50;;;;;;;6.10;5.03;;;;;;;21.31;53.68;95027.53;4989182;28;20255;-68
2022/08/05 01:02:16;;;;;;;5.70;5.03;;;;;;;21.23;53.75;95037.69;4976070;28;20259;-69
2022/08/05 01:04:41;;;;;;;6.57;4.95;;;;;;;21.33;53.07;95032.63;4993477;28;20211;-69
2022/08/05 01:07:07;;;;;;;5.40;4.90;;;;;;;21.38;53.17;95035.50;5006510;28;20642;-69
2022/08/05 01:09:32;;;;;;;5.90;5.40;;;;;;;21.26;53.03;95031.88;5005894;28;20555;-69
2022/08/05 01:12:03;;;;;;;4.93;4.53;;;;;;;21.08;52.58;95019.25;5006088;28;20223;-69
2022/08/05 01:14:50;;;;;;;6.55;5.28;;;;;;;21.09;52.88;95034.25;5001786;28;20223;-69
2022/08/05 01:17:37;;;;;;;6.25;4.63;;;;;;;21.10;53.01;95043.94;4974692;28;20210;-69
2022/08/05 01:20:21;;;;;;;4.57;4.18;;;;;;;21.15;52.45;95036.91;4984401;28;20283;-69
2022/08/05 01:22:52;;;;;;;5.72;4.10;;;;;;;21.07;52.45;95039.84;4998258;28;20223;-68
2022/08/05 01:25:45;;;;;;;4.68;4.30;;;;;;;21.06;52.40;95040.88;4984138;28;20327;-67
2022/08/05 01:28:30;;;;;;;4.30;3.90;;;;;;;20.97;52.52;95044.03;4979939;28;20262;-68
2022/08/05 01:31:12;;;;;;;4.75;4.35;;;;;;;20.98;52.36;95040.31;4982508;28;20239;-68
2022/08/05 01:33:48;;;;;;;4.30;3.90;;;;;;;20.90;52.49;95033.34;4976877;28;20240;-68
2022/08/05 01:36:17;;;;;;;5.45;4.68;;;;;;;20.98;52.45;95037.63;4987199;28;20242;-69
2022/08/05 01:38:46;;;;;;;5.28;3.83;;;;;;;20.95;52.56;95036.22;4985451;28;20275;-68
2022/08/05 01:41:15;;;;;;;5.53;4.13;;;;;;;20.81;53.01;95046.16;4987398;28;20230;-70
2022/08/05 01:43:42;;;;;;;4.75;4.32;;;;;;;20.83;53.02;95037.94;4987884;28;20214;-68
2022/08/05 01:46:08;;;;;;;6.72;4.78;;;;;;;20.67;53.55;95034.75;4988390;28;20222;-68
2022/08/05 01:48:36;;;;;;;8.27;4.72;;;;;;;20.63;53.79;95035.38;4981622;28;20230;-69
2022/08/05 01:51:03;;;;;;;6.55;4.90;;;;;;;20.68;53.67;95038.22;4983627;28;20292;-69
2022/08/05 01:53:30;;;;;;;4.40;4.07;;;;;;;20.57;53.93;95045.06;4995050;28;20218;-68
2022/08/05 01:56:00;;;;;;;6.75;4.57;;;;;;;20.64;53.64;95045.03;5006239;28;20241;-68
2022/08/05 01:58:28;;;;;;;7.10;4.75;;;;;;;20.79;53.10;95042.88;5008708;28;20297;-68
2022/08/05 02:00:57;;;;;;;6.53;4.90;;;;;;;20.77;52.85;95041.44;5003858;28;20241;-69
2022/08/05 02:03:24;;;;;;;8.23;5.78;;;;;;;20.75;53.58;95038.19;4993578;28;20222;-68
2022/08/05 02:05:52;;;;;;;8.57;5.30;;;;;;;20.73;53.45;95043.75;4985099;28;20238;-67
2022/08/05 02:08:19;;;;;;;6.43;4.88;;;;;;;20.56;53.84;95034.59;4986058;28;20214;-68
2022/08/05 02:10:50;;;;;;;6.63;4.55;;;;;;;20.56;54.03;95034.59;4985685;28;20207;-67
2022/08/05 02:13:32;;;;;;;4.88;4.53;;;;;;;20.64;53.67;95039.69;4990517;28;20227;-69
2022/08/05 02:16:04;;;;;;;5.07;4.57;;;;;;;20.56;53.48;95048.78;4973822;28;20228;-69
2022/08/05 02:18:38;;;;;;;4.40;4.00;;;;;;;20.52;52.67;95036.84;4984402;28;20219;-68
2022/08/05 02:21:33;;;;;;;4.43;3.83;;;;;;;20.53;50.99;95043.84;4991282;28;20235;-69
2022/08/05 02:24:05;;;;;;;5.28;4.70;;;;;;;20.47;52.06;95039.31;4993659;28;20293;-68
2022/08/05 02:26:46;;;;;;;4.90;4.50;;;;;;;20.41;52.80;95040.19;4990135;28;20227;-68
2022/08/05 02:29:17;;;;;;;5.40;4.28;;;;;;;20.36;52.23;95034.66;4986271;28;20229;-67
2022/08/05 02:31:44;;;;;;;5.85;4.47;;;;;;;20.24;52.73;95032.66;5005435;28;20222;-69
2022/08/05 02:34:11;;;;;;;6.70;4.55;;;;;;;20.19;52.45;95029.78;5000511;28;20302;-69
2022/08/05 02:36:42;;;;;;;5.75;4.38;;;;;;;20.30;52.14;95032.84;4993598;28;20777;-68
2022/08/05 02:39:09;;;;;;;6.05;4.97;;;;;;;20.22;53.69;95026.69;4995080;28;20266;-68
2022/08/05 02:41:36;;;;;;;6.72;5.10;;;;;;;20.34;53.82;95034.03;4992441;28;20453;-68
2022/08/05 02:44:06;;;;;;;6.65;5.05;;;;;;;20.25;54.35;95030.78;5010152;28;20241;-69
2022/08/05 02:46:34;;;;;;;6.13;5.38;;;;;;;20.26;54.86;95019.06;5012425;28;20234;-69
2022/08/05 02:49:00;;;;;;;6.95;5.53;;;;;;;20.23;55.66;95032.84;4994075;28;20255;-68
2022/08/05 02:51:26;;;;;;;5.60;5.20;;;;;;;20.12;55.64;95026.31;5002767;28;20249;-67
2022/08/05 02:53:53;;;;;;;5.60;4.60;;;;;;;20.09;55.15;95025.94;4999545;28;20223;-68
2022/08/05 02:56:19;;;;;;;7.05;4.75;;;;;;;20.00;55.57;95030.69;5005282;28;20204;-68
2022/08/05 02:58:46;;;;;;;6.82;5.18;;;;;;;20.09;54.63;95025.94;4983966;28;20410;-68
2022/08/05 03:01:18;;;;;;;5.43;4.68;;;;;;;20.02;54.51;95026.78;4990721;28;20220;-68
2022/08/05 03:03:49;;;;;;;6.40;4.55;;;;;;;19.95;54.47;95025.97;4983213;28;20226;-69
2022/08/05 03:06:15;;;;;;;6.35;4.30;;;;;;;19.98;54.69;95025.53;4974808;28;20224;-69
2022/08/05 03:08:42;;;;;;;5.93;5.00;;;;;;;19.85;55.06;95028.25;4987861;28;20227;-69
2022/08/05 03:11:24;;;;;;;6.35;4.90;;;;;;;19.77;55.10;95034.63;4984096;28;20211;-68
2022/08/05 03:13:50;;;;;;;6.50;4.57;;;;;;;19.73;55.54;95033.41;4991687;28;20230;-68
2022/08/05 03:16:16;;;;;;;8.90;5.20;;;;;;;19.76;55.79;95035.66;4992139;28;20223;-67
2022/08/05 03:18:41;;;;;;;6.20;4.97;;;;;;;19.77;55.63;95037.28;4988001;28;20215;-68
2022/08/05 03:21:08;;;;;;;7.47;5.25;;;;;;;19.71;55.53;95039.97;4989725;28;20262;-68
2022/08/05 03:23:34;;;;;;;9.63;5.55;;;;;;;19.69;55.29;95040.16;4991008;28;20319;-68
2022/08/05 03:26:02;;;;;;;11.15;5.82;;;;;;;19.73;55.21;95044.06;4991029;28;20697;-68
2022/08/05 03:28:28;;;;;;;5.50;4.90;;;;;;;19.70;55.20;95035.66;4990414;28;20237;-67
2022/08/05 03:30:55;;;;;;;8.20;5.15;;;;;;;19.80;55.05;95028.84;4990955;28;20351;-69
2022/08/05 03:33:20;;;;;;;6.80;5.35;;;;;;;19.75;54.93;95031.34;4985309;28;20224;-69
2022/08/05 03:35:47;;;;;;;5.10;4.70;;;;;;;19.73;55.02;95040.59;4982032;28;20290;-68
2022/08/05 03:38:13;;;;;;;6.80;5.13;;;;;;;19.82;54.62;95036.66;4987822;28;20230;-69
2022/08/05 03:40:44;;;;;;;5.22;4.72;;;;;;;19.83;54.64;95031.13;4986844;28;20298;-69
2022/08/05 03:43:09;;;;;;;6.05;4.90;;;;;;;19.87;54.57;95033.38;4980354;28;20311;-69
2022/08/05 03:45:34;;;;;;;6.85;5.40;;;;;;;20.04;53.72;95038.03;4982961;28;20227;-68
2022/08/05 03:48:00;;;;;;;8.60;5.38;;;;;;;19.95;53.52;95028.63;4988065;28;20297;-68
2022/08/05 03:50:32;;;;;;;6.05;5.40;;;;;;;20.02;54.22;95042.78;5005544;28;20235;-69
2022/08/05 03:53:06;;;;;;;5.80;5.30;;;;;;;19.94;54.75;95040.34;5004846;28;20203;-67
2022/08/05 03:55:36;;;;;;;6.30;5.63;;;;;;;19.76;56.62;95050.84;5006355;28;20226;-67
2022/08/05 03:58:04;;;;;;;6.63;6.03;;;;;;;19.81;56.71;95041.19;4993268;28;20231;-68
2022/08/05 04:00:30;;;;;;;7.20;5.72;;;;;;;19.91;56.54;95039.94;4997734;28;20225;-69
2022/08/05 04:02:58;;;;;;;7.28;6.55;;;;;;;19.99;56.42;95037.03;5004852;28;20256;-67
2022/08/05 04:05:26;;;;;;;7.25;5.80;;;;;;;19.92;56.99;95030.91;5016036;28;20670;-68
2022/08/05 04:07:52;;;;;;;9.82;6.30;;;;;;;19.93;56.81;95040.53;4977486;28;20209;-68
2022/08/05 04:10:18;;;;;;;7.38;5.65;;;;;;;19.17;58.46;95044.50;4986306;28;20281;-69
2022/08/05 04:12:43;;;;;;;7.45;6.38;;;;;;;19.25;57.97;95043.47;4988740;28;20232;-68
2022/08/05 04:15:10;;;;;;;8.90;6.10;;;;;;;19.33;57.87;95038.75;4987696;28;20227;-68
2022/08/05 04:17:36;;;;;;;8.57;6.40;;;;;;;18.99;58.79;95036.28;4974404;28;20251;-68
2022/08/05 04:20:02;;;;;;;9.23;6.10;;;;;;;19.02;58.51;95042.00;4977859;28;20257;-69
2022/08/05 04:22:28;;;;;;;6.88;6.28;;;;;;;19.40;57.70;95033.41;4977903;28;20235;-69
2022/08/05 04:24:53;;;;;;;7.07;6.20;;;;;;;19.55;57.25;95036.69;4974349;28;20236;-68
2022/08/05 04:27:19;;;;;;;7.53;5.97;;;;;;;19.77;56.81;95039.13;4973867;28;20247;-68
2022/08/05 04:29:44;;;;;;;7.00;6.25;;;;;;;19.66;57.25;95029.94;4987083;28;20308;-69
2022/08/05 04:32:10;;;;;;;7.68;6.15;;;;;;;19.75;56.68;95035.84;5009403;28;20207;-69
2022/08/05 04:34:36;;;;;;;7.45;5.53;;;;;;;19.43;57.50;95038.31;4990264;28;20289;-69
2022/08/05 04:37:02;;;;;;;6.72;6.20;;;;;;;19.61;56.80;95033.16;4987612;28;20223;-69
2022/08/05 04:39:28;;;;;;;6.72;6.13;;;;;;;19.64;56.31;95033.78;4979232;28;20231;-64
2022/08/05 04:41:53;;;;;;;7.53;5.82;;;;;;;19.61;56.29;95033.16;5002359;28;20410;-65
2022/08/05 04:44:19;;;;;;;7.50;6.40;;;;;;;19.96;55.47;95024.09;4986270;28;20215;-65
2022/08/05 04:46:44;;;;;;;9.18;6.15;;;;;;;20.05;55.31;95030.88;4976474;28;20231;-65
2022/08/05 04:49:10;;;;;;;9.27;6.57;;;;;;;20.15;54.86;95033.91;4987025;28;20224;-63
2022/08/05 04:51:35;;;;;;;11.13;7.03;;;;;;;20.32;54.49;95031.59;4988936;28;20232;-65
2022/08/05 04:54:00;;;;;;;9.15;6.32;;;;;;;20.16;55.60;95035.56;4983609;28;20291;-63
2022/08/05 04:56:26;;;;;;;9.50;6.22;;;;;;;20.22;54.86;95031.22;4973625;28;20230;-64
2022/08/05 04:58:51;;;;;;;10.20;5.85;;;;;;;20.34;54.75;95034.03;4978547;28;20210;-64
2022/08/05 05:01:17;;;;;;;7.72;6.43;;;;;;;20.39;54.26;95042.22;4999769;28;20222;-64
2022/08/05 05:03:43;;;;;;;7.97;6.40;;;;;;;20.33;54.03;95040.41;4990079;28;20275;-64
2022/08/05 05:06:12;;;;;;;7.68;6.65;;;;;;;20.27;53.95;95028.72;4991301;28;20235;-64
2022/08/05 05:08:38;;;;;;;8.00;6.10;;;;;;;20.44;53.51;95034.41;4989794;28;20251;-65
2022/08/05 05:11:04;;;;;;;6.90;6.30;;;;;;;20.47;53.14;95033.97;4996030;28;20213;-64
2022/08/05 05:13:30;;;;;;;7.85;6.95;;;;;;;20.45;53.22;95036.06;4981652;28;20250;-65
2022/08/05 05:15:55;;;;;;;7.35;6.45;;;;;;;20.52;53.21;95023.47;4980672;28;20228;-65
2022/08/05 05:18:21;;;;;;;8.25;7.28;;;;;;;20.75;52.67;95032.84;4982085;28;20234;-66
2022/08/05 05:20:47;;;;;;;7.07;6.38;;;;;;;20.69;52.65;95034.53;4980035;28;20286;-65
2022/08/05 05:23:13;;;;;;;7.13;6.43;;;;;;;20.74;52.81;95037.34;4974108;28;20211;-64
2022/08/05 05:25:43;;;;;;;7.97;7.18;;;;;;;20.65;52.51;95030.63;4976642;28;20228;-66
2022/08/05 05:28:10;;;;;;;7.70;6.68;;;;;;;20.82;52.79;95033.63;4991636;28;20255;-64
2022/08/05 05:30:37;;;;;;;10.25;7.30;;;;;;;20.87;52.39;95031.94;4984467;28;20220;-65
2022/08/05 05:33:04;;;;;;;6.95;6.40;;;;;;;20.74;52.98;95026.66;4996783;28;20238;-62
2022/08/05 05:35:31;;;;;;;7.20;6.40;;;;;;;20.92;52.19;95024.09;4999460;28;20229;-63
2022/08/05 05:37:59;;;;;;;8.88;6.75;;;;;;;21.07;51.88;95022.97;5003495;28;20206;-62
2022/08/05 05:40:26;;;;;;;8.20;7.50;;;;;;;21.26;51.52;95021.19;4989000;28;20219;-61
2022/08/05 05:42:52;;;;;;;8.20;7.43;;;;;;;21.12;51.69;95020.47;4987973;28;20236;-60
2022/08/05 05:45:18;;;;;;;12.93;7.80;;;;;;;21.33;51.10;95028.13;4985349;28;20706;-61
2022/08/05 05:47:44;;;;;;;7.43;6.72;;;;;;;21.20;51.50;95030.06;4989004;28;20226;-60
2022/08/05 05:50:15;;;;;;;9.88;7.32;;;;;;;21.22;51.97;95036.84;5003872;28;20207;-62
2022/08/05 05:52:41;;;;;;;8.00;7.20;;;;;;;21.30;52.44;95028.56;4970371;28;20540;-61
2022/08/05 05:55:09;;;;;;;8.38;7.30;;;;;;;21.25;51.82;95031.06;5001347;28;20372;-64
2022/08/05 05:57:35;;;;;;;8.57;7.45;;;;;;;21.43;52.41;95032.19;4985915;28;20224;-61
2022/08/05 06:00:03;;;;;;;8.27;7.22;;;;;;;21.47;51.74;95039.56;4982916;28;20223;-61
2022/08/05 06:02:28;;;;;;;8.45;7.65;;;;;;;21.60;50.57;95033.28;4985734;28;20216;-61
2022/08/05 06:04:54;;;;;;;10.52;8.70;;;;;;;21.46;51.08;95029.88;4981425;28;20696;-61
2022/08/05 06:07:19;;;;;;;10.50;7.78;;;;;;;21.44;51.46;95031.97;4982619;28;20223;-63
2022/08/05 06:09:44;;;;;;;9.48;8.02;;;;;;;21.68;50.21;95034.84;4987800;28;20227;-62
2022/08/05 06:12:10;;;;;;;9.75;8.30;;;;;;;21.44;50.84;95036.50;4993219;28;20222;-62
2022/08/05 06:14:36;;;;;;;10.10;8.35;;;;;;;21.62;51.05;95033.03;5002771;28;20227;-63
2022/08/05 06:17:01;;;;;;;11.00;8.13;;;;;;;21.75;51.23;95038.28;4985963;28;20207;-62
2022/08/05 06:19:27;;;;;;;8.57;7.78;;;;;;;21.78;51.25;95041.34;5011463;28;20274;-62
2022/08/05 06:21:52;;;;;;;8.27;7.47;;;;;;;21.79;51.21;95037.63;4987286;28;20227;-62
2022/08/05 06:24:18;;;;;;;12.15;8.80;;;;;;;21.81;50.24;95034.72;4987612;28;20261;-62
2022/08/05 06:26:44;;;;;;;9.45;7.97;;;;;;;21.76;50.64;95037.25;4990553;28;20230;-63
2022/08/05 06:29:09;;;;;;;9.82;7.53;;;;;;;21.94;49.69;95031.09;4989298;28;20218;-62
2022/08/05 06:31:36;;;;;;;7.93;7.13;;;;;;;22.00;50.08;95023.00;5006364;28;20199;-62
2022/08/05 06:34:01;;;;;;;10.57;7.05;;;;;;;22.09;49.31;95030.72;4982214;28;20280;-63
2022/08/05 06:36:27;;;;;;;9.85;6.57;;;;;;;22.01;50.19;95023.81;4988676;28;20246;-62
2022/08/05 06:38:53;;;;;;;5.93;5.43;;;;;;;21.98;48.75;95033.09;4986924;28;20219;-63
2022/08/05 06:41:20;;;;;;;6.13;5.50;;;;;;;22.10;48.59;95029.69;4988052;28;20211;-63
2022/08/05 06:43:46;;;;;;;6.57;5.20;;;;;;;22.26;48.16;95030.97;4992481;28;20197;-63
2022/08/05 06:46:11;;;;;;;5.93;5.38;;;;;;;22.21;48.61;95034.31;4980863;28;20236;-62
2022/08/05 06:48:37;;;;;;;5.53;5.13;;;;;;;22.37;49.15;95033.75;4984162;28;20270;-62
2022/08/05 06:51:06;;;;;;;5.80;5.18;;;;;;;22.47;48.33;95025.16;4987466;28;20219;-63
2022/08/05 06:53:32;;;;;;;6.43;5.80;;;;;;;22.71;46.85;95028.75;4985232;28;20297;-61
2022/08/05 06:55:59;;;;;;;5.90;5.35;;;;;;;22.51;49.03;95026.34;4993725;28;20196;-62
2022/08/05 06:58:26;;;;;;;6.25;5.70;;;;;;;22.50;49.67;95031.91;4983707;28;20231;-61
2022/08/05 07:00:52;;;;;;;8.30;5.57;;;;;;;22.74;48.47;95016.75;5002317;28;20306;-62
2022/08/05 07:03:17;;;;;;;6.45;5.95;;;;;;;22.75;49.01;95021.91;4997550;28;20302;-62
2022/08/05 07:05:43;;;;;;;6.45;5.63;;;;;;;22.84;48.11;95022.41;4966326;28;20259;-62
2022/08/05 07:08:09;;;;;;;6.32;5.72;;;;;;;22.74;48.50;95020.25;4984698;28;20211;-61
2022/08/05 07:10:34;;;;;;;6.65;5.30;;;;;;;22.86;47.59;95029.16;5003914;28;20761;-62
2022/08/05 07:18:28;;;;;;;7.13;5.43;;;;;;;22.89;46.36;95020.66;5006073;28;20237;-63
2022/08/05 07:20:53;;;;;;;7.18;5.95;;;;;;;23.06;47.56;95018.16;4999711;28;20223;-63
2022/08/05 07:23:18;;;;;;;7.47;6.13;;;;;;;23.12;47.21;95024.47;4984133;28;20230;-61
2022/08/05 07:25:44;;;;;;;9.18;5.43;;;;;;;23.16;46.30;95022.97;4980405;28;20220;-61
2022/08/05 07:28:10;;;;;;;7.70;5.93;;;;;;;23.24;46.22;95029.88;4989727;28;20231;-61
2022/08/05 07:30:36;;;;;;;5.68;5.15;;;;;;;23.44;46.16;95019.66;4994456;28;20326;-62
2022/08/05 07:33:04;;;;;;;7.53;4.70;;;;;;;23.39;45.22;95024.91;4984431;28;20228;-62
2022/08/05 07:35:30;;;;;;;10.32;6.00;;;;;;;23.51;45.66;95020.34;4985843;28;20250;-62
2022/08/05 07:37:55;;;;;;;6.82;5.45;;;;;;;23.45;46.09;95020.47;4982284;28;20210;-61
2022/08/05 07:40:21;;;;;;;10.50;5.80;;;;;;;23.52;45.59;95013.94;5005474;28;20226;-63
2022/08/05 07:42:47;;;;;;;10.27;5.53;;;;;;;23.72;45.33;95018.19;4999540;28;20215;-62
2022/08/05 07:45:13;;;;;;;7.40;6.30;;;;;;;23.78;45.40;95015.38;4999683;28;20231;-62
2022/08/05 07:47:38;;;;;;;6.72;5.57;;;;;;;23.81;44.99;95015.94;5003401;28;20227;-62
2022/08/05 07:50:04;;;;;;;7.50;5.40;;;;;;;23.90;43.66;95014.56;5009442;28;20206;-61
2022/08/05 07:52:29;;;;;;;5.55;5.05;;;;;;;23.84;43.65;95018.16;5003218;28;20222;-61
2022/08/05 07:54:55;;;;;;;11.13;5.47;;;;;;;23.93;43.86;95019.47;5001774;28;20218;-62
2022/08/05 07:57:21;;;;;;;7.40;4.88;;;;;;;24.02;43.07;95017.22;4999880;28;20296;-61
2022/08/05 07:59:47;;;;;;;5.38;4.88;;;;;;;24.02;43.02;95018.03;5000615;28;20266;-61
2022/08/05 08:02:12;;;;;;;5.75;5.25;;;;;;;24.06;43.04;95021.06;4991932;28;20215;-62
2022/08/05 08:04:38;;;;;;;9.00;5.63;;;;;;;24.11;43.97;95013.09;5008881;28;20215;-62
2022/08/05 08:07:04;;;;;;;10.73;5.47;;;;;;;24.16;43.42;95015.91;5010425;28;20242;-62
2022/08/05 08:09:29;;;;;;;5.60;5.07;;;;;;;24.37;43.35;95017.16;4997079;28;20227;-62
2022/08/05 08:11:55;;;;;;;8.45;5.78;;;;;;;24.42;41.75;95009.19;4999633;28;20353;-62
2022/08/05 08:14:20;;;;;;;6.53;5.65;;;;;;;24.41;42.47;95016.44;4985700;28;20243;-63
2022/08/05 08:16:46;;;;;;;7.53;5.43;;;;;;;24.47;42.24;95017.38;4986727;28;20202;-62
2022/08/05 08:19:11;;;;;;;6.20;5.60;;;;;;;24.55;42.13;95013.50;5001691;28;20215;-61
2022/08/05 08:21:36;;;;;;;5.65;5.15;;;;;;;24.64;42.58;95012.91;4992872;28;20230;-62
2022/08/05 08:24:02;;;;;;;6.18;4.75;;;;;;;24.78;41.63;95010.75;4982410;28;20351;-62
2022/08/05 08:26:28;;;;;;;6.07;5.53;;;;;;;24.75;42.28;95016.59;4986215;28;20317;-62
2022/08/05 08:28:53;;;;;;;6.22;5.68;;;;;;;24.77;41.11;95013.66;4987152;28;20202;-61
2022/08/05 08:31:18;;;;;;;5.35;4.85;;;;;;;24.74;41.07;95014.13;4984834;28;20219;-63
2022/08/05 08:33:45;;;;;;;6.57;5.57;;;;;;;24.84;40.80;95007.06;4986342;28;20253;-62
2022/08/05 08:36:10;;;;;;;6.93;4.72;;;;;;;24.96;39.74;94998.13;4999827;28;20258;-62
2022/08/05 08:38:36;;;;;;;5.38;4.85;;;;;;;25.01;39.76;95003.59;4992829;28;20300;-61
2022/08/05 08:41:06;;;;;;;5.28;4.78;;;;;;;25.16;40.05;95000.41;4988442;28;20266;-61
2022/08/05 08:43:34;;;;;;;5.15;4.65;;;;;;;25.42;38.91;95007.00;4984932;28;20323;-61
2022/08/05 08:46:02;;;;;;;6.10;4.20;;;;;;;25.49;38.90;95005.78;4985064;28;20232;-61
2022/08/05 08:48:30;;;;;;;4.82;4.30;;;;;;;25.48;39.38;95000.66;4981100;28;20227;-61
2022/08/05 08:50:56;;;;;;;6.20;5.30;;;;;;;25.65;39.30;95003.31;4990875;28;20223;-61
2022/08/05 08:53:24;;;;;;;4.70;4.22;;;;;;;25.73;38.78;94998.34;5006705;28;20206;-62
2022/08/05 08:55:49;;;;;;;6.28;4.22;;;;;;;25.76;37.44;95005.09;4975579;28;20208;-62
2022/08/05 08:58:16;;;;;;;5.47;4.60;;;;;;;25.82;38.16;95003.28;5001618;28;20228;-62
2022/08/05 09:00:42;;;;;;;5.28;4.10;;;;;;;25.85;38.05;95003.66;4984190;28;20238;-62
2022/08/05 09:03:10;;;;;;;4.78;4.38;;;;;;;25.87;37.60;94996.13;4982738;28;20227;-61
2022/08/05 09:05:35;;;;;;;6.60;4.18;;;;;;;25.93;37.25;94997.03;4983727;28;20243;-62
2022/08/05 09:08:01;;;;;;;4.97;3.60;;;;;;;25.96;36.00;94991.97;4984133;28;20313;-62
2022/08/05 09:10:27;;;;;;;4.05;3.53;;;;;;;26.07;35.72;94986.72;4982754;28;20223;-63
2022/08/05 09:12:53;;;;;;;3.35;3.10;;;;;;;26.07;35.35;94984.84;4983589;28;20228;-67
2022/08/05 09:15:18;;;;;;;3.78;3.47;;;;;;;26.09;35.11;94981.88;4978825;28;20224;-64
2022/08/05 09:17:44;;;;;;;4.80;3.15;;;;;;;26.12;33.68;94973.31;4978149;28;20235;-64
2022/08/05 09:20:11;;;;;;;7.07;4.40;;;;;;;26.17;34.83;94968.81;4973806;28;20214;-63
2022/08/05 09:23:12;;;;;;;4.65;3.90;;;;;;;26.26;34.50;94965.66;4975191;28;20204;-63
2022/08/05 09:25:40;;;;;;;4.65;3.63;;;;;;;26.22;35.15;94975.31;4990476;28;20238;-65
2022/08/05 09:28:26;;;;;;;3.72;3.15;;;;;;;26.25;33.92;94961.31;5008467;28;20227;-65
2022/08/05 09:31:10;;;;;;;3.58;2.97;;;;;;;26.43;32.75;94965.59;5004606;28;20229;-63
2022/08/05 09:33:55;;;;;;;4.60;3.03;;;;;;;26.42;33.63;94966.66;4999941;28;20230;-64
2022/08/05 09:36:21;;;;;;;3.17;2.90;;;;;;;26.55;32.70;94953.63;5010862;28;20226;-63
2022/08/05 09:39:01;;;;;;;3.97;3.03;;;;;;;26.79;32.73;94958.72;5000152;28;20563;-62
2022/08/05 09:41:27;;;;;;;2.90;2.60;;;;;;;26.81;32.17;94952.00;5000678;28;20233;-63
2022/08/05 09:43:52;;;;;;;3.47;2.83;;;;;;;26.98;32.29;94951.91;5003426;28;20211;-63
2022/08/05 09:46:31;;;;;;;4.72;3.17;;;;;;;27.12;32.59;94952.28;5001721;28;20726;-63
2022/08/05 09:48:59;;;;;;;3.80;3.15;;;;;;;27.11;32.04;94947.97;4998817;28;20229;-63
2022/08/05 09:51:36;;;;;;;3.33;3.03;;;;;;;27.33;31.05;94941.69;4999476;28;20237;-66
2022/08/05 09:54:06;;;;;;;4.25;2.80;;;;;;;27.47;29.95;94945.56;5009692;28;20427;-63
2022/08/05 09:56:33;;;;;;;3.35;3.05;;;;;;;27.47;31.51;94940.16;4997496;28;20456;-63
2022/08/05 09:59:02;;;;;;;4.05;3.13;;;;;;;27.55;31.43;94945.06;4998268;28;20644;-64
2022/08/05 10:01:32;;;;;;;3.53;2.95;;;;;;;27.68;30.71;94938.41;4999781;28;20253;-63
2022/08/05 10:04:04;;;;;;;5.43;3.63;;;;;;;27.77;30.94;94936.84;5001150;28;20227;-63
2022/08/05 10:06:29;;;;;;;5.00;3.33;;;;;;;27.86;30.12;94929.09;5000094;28;20334;-63
2022/08/05 10:09:10;;;;;;;6.05;3.30;;;;;;;27.86;33.60;94926.41;4999426;28;20235;-64
2022/08/05 10:11:35;;;;;;;4.97;3.50;;;;;;;27.90;31.15;94927.47;5010894;28;20795;-64
2022/08/05 10:14:21;;;;;;;5.75;3.75;;;;;;;28.05;31.01;94921.34;5001467;28;20207;-64
2022/08/05 10:16:46;;;;;;;3.60;3.30;;;;;;;28.06;30.64;94923.78;4983428;28;20239;-64
2022/08/05 10:19:12;;;;;;;4.93;4.00;;;;;;;28.11;29.33;94920.28;4986390;28;20281;-64
2022/08/05 10:21:38;;;;;;;3.72;3.28;;;;;;;28.24;29.10;94917.09;4989234;28;20326;-63
2022/08/05 10:24:05;;;;;;;3.63;3.17;;;;;;;28.38;29.15;94920.09;4989479;28;20291;-63
2022/08/05 10:26:31;;;;;;;5.18;3.47;;;;;;;28.62;29.43;94923.16;4985951;28;20227;-63
2022/08/05 10:28:57;;;;;;;5.45;3.70;;;;;;;28.64;30.73;94923.72;4985824;28;20242;-64
2022/08/05 10:31:22;;;;;;;3.83;3.45;;;;;;;28.75;29.98;94919.16;5001209;28;20243;-63
2022/08/05 10:33:48;;;;;;;3.95;3.42;;;;;;;28.85;29.92;94924.56;4993671;28;20320;-63
2022/08/05 10:36:14;;;;;;;3.70;3.33;;;;;;;29.01;28.62;94917.28;4986901;28;20218;-62
2022/08/05 10:38:44;;;;;;;3.83;3.42;;;;;;;28.98;27.65;94918.63;4986951;28;20219;-63
2022/08/05 10:41:15;;;;;;;3.50;3.20;;;;;;;28.90;28.21;94919.16;4999627;28;20199;-63
2022/08/05 10:43:53;;;;;;;3.58;3.28;;;;;;;28.95;29.80;94913.75;4996928;28;20223;-62
2022/08/05 10:46:22;;;;;;;3.85;3.45;;;;;;;29.18;29.22;94908.91;5006243;28;20273;-64
2022/08/05 10:48:53;;;;;;;3.67;3.47;;;;;;;29.28;29.87;94911.63;4986006;28;20287;-64
2022/08/05 10:51:20;;;;;;;4.00;3.70;;;;;;;29.41;30.44;94908.38;4991038;28;20234;-64
2022/08/05 10:53:56;;;;;;;3.78;3.35;;;;;;;29.53;27.96;94905.34;4990352;28;20223;-65
2022/08/05 10:56:43;;;;;;;4.80;3.33;;;;;;;29.64;29.25;94909.72;4988515;28;20191;-64
2022/08/05 10:59:08;;;;;;;4.15;3.85;;;;;;;29.79;28.76;94894.50;5009235;28;20572;-63
2022/08/05 11:01:43;;;;;;;3.97;3.58;;;;;;;29.87;28.49;94894.75;4986019;28;20236;-63
2022/08/05 11:04:16;;;;;;;3.97;3.60;;;;;;;30.00;28.33;94887.13;5002738;28;20225;-63
2022/08/05 11:06:56;;;;;;;5.25;3.60;;;;;;;30.12;26.69;94887.59;4987311;28;20223;-63
2022/08/05 11:09:27;;;;;;;3.50;3.30;;;;;;;30.22;27.08;94892.16;4984836;28;20238;-64
2022/08/05 11:11:54;;;;;;;3.80;3.45;;;;;;;30.34;26.02;94889.97;4991773;28;20215;-64
2022/08/05 11:14:37;;;;;;;4.07;3.55;;;;;;;30.37;27.23;94880.44;4994881;28;20215;-64
2022/08/05 11:17:25;;;;;;;3.92;3.60;;;;;;;30.51;27.41;94884.97;4990741;28;20238;-64
2022/08/05 11:19:54;;;;;;;3.72;3.42;;;;;;;30.61;26.78;94867.84;4978018;28;20266;-63
2022/08/05 11:22:40;;;;;;;3.80;3.50;;;;;;;30.81;25.43;94876.97;5001658;28;20230;-62
2022/08/05 11:25:31;;;;;;;3.55;3.17;;;;;;;30.91;24.91;94879.59;4979706;28;20232;-62
2022/08/05 11:28:08;;;;;;;6.40;3.78;;;;;;;31.08;25.19;94885.41;4981763;28;20258;-62
2022/08/05 11:31:00;;;;;;;3.70;3.40;;;;;;;31.17;25.19;94867.44;4986303;28;20255;-62
2022/08/05 11:33:56;;;;;;;5.90;3.22;;;;;;;31.05;24.32;94871.63;4996295;28;20288;-62
2022/08/05 11:36:50;;;;;;;3.80;3.50;;;;;;;31.07;24.50;94864.81;4996427;28;20254;-61
2022/08/05 11:39:49;;;;;;;4.30;3.80;;;;;;;31.14;25.65;94859.03;4991955;28;20238;-62
2022/08/05 11:42:16;;;;;;;4.57;3.70;;;;;;;31.46;24.84;94866.63;4994281;28;20227;-62
2022/08/05 11:44:42;;;;;;;5.32;3.78;;;;;;;31.72;23.21;94853.59;4981836;28;20227;-63
2022/08/05 11:47:08;;;;;;;4.53;3.35;;;;;;;31.77;23.45;94856.25;4988872;28;20203;-62